Vilnius, Lithuania
Current Conditions -  °F | °C
As of 7:20 PM on Wednesday 28 Jan 2015 (Local Time) from EYVI Reporting Station
Light Snow Light Snow  
Wind Chill: 23°   Ceiling: 500
Heat Index: 30°   Visibility: 1.7mi
Dew Point: 30°   Wind: 7mph
Humidity: 100%   Direction: 200°SSW
Pressure: 29.65"   Gusts: NA
Location:  54.7°N, 25.27°E
Report Text: EYVI 281620Z 20006KT 2800 -SN BR OVC005 M01/M01 Q1004 R20/2///95 TEMPO FZDZ
Loading
Personal Weather Stations






























Interactive Weather Map New forecast layout! Learn more

10-Day Weather Forecast

Advertisements
Track Severe Weather on mobile